createdAt,value
2022-09-07T00:01:51.280Z,4.50
2022-09-07T00:04:17.991Z,4.30
2022-09-07T00:06:44.553Z,4.45
2022-09-07T00:09:11.404Z,4.30
2022-09-07T00:11:37.943Z,4.13
2022-09-07T00:14:05.957Z,4.18
2022-09-07T00:16:32.481Z,4.38
2022-09-07T00:19:01.927Z,4.28
2022-09-07T00:21:29.034Z,3.97
2022-09-07T00:23:55.937Z,4.40
2022-09-07T00:26:25.693Z,4.18
2022-09-07T00:28:52.998Z,4.53
2022-09-07T00:31:22.571Z,4.68
2022-09-07T00:33:50.702Z,4.18
2022-09-07T00:36:18.696Z,4.15
2022-09-07T00:38:45.200Z,4.28
2022-09-07T00:41:13.038Z,4.10
2022-09-07T00:43:45.902Z,4.20
2022-09-07T00:46:20.216Z,4.10
2022-09-07T00:48:52.602Z,4.57
2022-09-07T00:51:28.969Z,4.25
2022-09-07T00:54:00.277Z,4.90
2022-09-07T00:56:31.622Z,4.20
2022-09-07T00:58:58.907Z,4.70
2022-09-07T01:01:27.046Z,4.38
2022-09-07T01:03:56.705Z,4.20
2022-09-07T01:06:28.107Z,4.05
2022-09-07T01:08:59.439Z,4.28
2022-09-07T01:11:26.283Z,4.30
2022-09-07T01:13:53.799Z,4.00
2022-09-07T01:17:05.361Z,4.88
2022-09-07T01:19:52.894Z,4.35
2022-09-07T01:22:53.360Z,4.38
2022-09-07T01:25:41.220Z,4.20
2022-09-07T01:28:15.719Z,4.10
2022-09-07T01:30:51.782Z,4.15
2022-09-07T01:33:37.276Z,4.13
2022-09-07T01:36:35.307Z,4.60
2022-09-07T01:39:04.524Z,4.55
2022-09-07T01:41:46.914Z,4.03
2022-09-07T01:44:38.228Z,4.15
2022-09-07T01:47:17.627Z,4.05
2022-09-07T01:49:50.892Z,4.30
2022-09-07T01:52:41.325Z,4.40
2022-09-07T01:55:22.095Z,4.38
2022-09-07T01:58:16.338Z,4.15
2022-09-07T02:00:48.837Z,4.18
2022-09-07T02:03:23.406Z,4.47
2022-09-07T02:05:58.690Z,4.22
2022-09-07T02:08:33.659Z,4.20
2022-09-07T02:11:16.344Z,4.22
2022-09-07T02:13:47.639Z,4.45
2022-09-07T02:16:19.642Z,4.03
2022-09-07T02:18:49.969Z,4.15
2022-09-07T02:21:21.826Z,4.25
2022-09-07T02:23:54.000Z,4.53
2022-09-07T02:26:23.826Z,4.13
2022-09-07T02:28:50.787Z,4.18
2022-09-07T02:31:17.424Z,4.00
2022-09-07T02:33:44.094Z,4.32
2022-09-07T02:36:13.417Z,3.92
2022-09-07T02:38:39.945Z,4.40
2022-09-07T02:41:26.435Z,4.80
2022-09-07T02:43:52.935Z,4.47
2022-09-07T02:46:36.314Z,4.28
2022-09-07T02:49:20.616Z,3.80
2022-09-07T02:52:12.239Z,4.65
2022-09-07T02:55:16.393Z,4.55
2022-09-07T02:58:04.231Z,4.45
2022-09-07T03:00:35.786Z,4.32
2022-09-07T03:03:29.566Z,4.78
2022-09-07T03:06:01.686Z,4.40
2022-09-07T03:08:38.711Z,4.75
2022-09-07T03:11:06.622Z,4.05
2022-09-07T03:13:33.623Z,4.45
2022-09-07T03:16:00.506Z,4.28
2022-09-07T03:18:28.673Z,4.30
2022-09-07T03:20:55.917Z,4.25
2022-09-07T03:23:23.029Z,4.22
2022-09-07T03:25:49.507Z,4.28
2022-09-07T03:28:16.277Z,4.53
2022-09-07T03:30:49.732Z,4.65
2022-09-07T03:33:16.857Z,4.18
2022-09-07T03:35:44.620Z,4.55
2022-09-07T03:38:11.526Z,4.53
2022-09-07T03:40:38.049Z,4.22
2022-09-07T03:43:05.143Z,4.35
2022-09-07T03:45:31.575Z,4.35
2022-09-07T03:47:58.020Z,4.20
2022-09-07T03:50:24.548Z,4.65
2022-09-07T03:52:50.988Z,4.63
2022-09-07T03:55:17.461Z,4.50
2022-09-07T03:57:43.986Z,4.55
2022-09-07T04:00:11.304Z,4.20
2022-09-07T04:02:40.769Z,4.28
2022-09-07T04:05:07.685Z,4.00
2022-09-07T04:07:34.125Z,4.38
2022-09-07T04:10:00.624Z,4.35
2022-09-07T04:12:27.117Z,4.20
2022-09-07T04:14:53.590Z,4.43
2022-09-07T04:17:20.046Z,4.40
2022-09-07T04:19:46.477Z,4.15
2022-09-07T04:22:12.946Z,4.40
2022-09-07T04:24:39.415Z,4.38
2022-09-07T04:27:05.902Z,4.63
2022-09-07T04:29:32.346Z,4.88
2022-09-07T04:31:58.779Z,4.22
2022-09-07T04:34:25.248Z,4.38
2022-09-07T04:36:51.675Z,4.55
2022-09-07T04:39:18.241Z,4.70
2022-09-07T04:41:44.761Z,4.15
2022-09-07T04:44:16.094Z,4.32
2022-09-07T04:46:43.373Z,4.57
2022-09-07T04:49:11.773Z,4.30
2022-09-07T04:51:39.875Z,4.35
2022-09-07T04:54:06.978Z,3.88
2022-09-07T04:56:33.970Z,4.40
2022-09-07T04:59:04.117Z,4.30
2022-09-07T05:01:30.739Z,4.22
2022-09-07T05:04:00.204Z,4.38
2022-09-07T05:06:26.759Z,4.22
2022-09-07T05:08:53.862Z,4.22
2022-09-07T05:11:27.750Z,4.15
2022-09-07T05:13:56.874Z,4.38
2022-09-07T05:16:25.006Z,4.35
2022-09-07T05:18:53.490Z,4.72
2022-09-07T05:21:23.003Z,4.32
2022-09-07T05:23:51.315Z,4.55
2022-09-07T05:26:19.396Z,3.97
2022-09-07T05:28:46.663Z,4.65
2022-09-07T05:36:39.695Z,4.38
2022-09-07T05:39:07.800Z,4.53
2022-09-07T05:41:34.857Z,4.50
2022-09-07T05:46:48.085Z,3.88
2022-09-07T05:49:14.541Z,4.30
2022-09-07T05:51:41.159Z,4.60
2022-09-07T05:54:07.666Z,4.38
2022-09-07T05:56:35.941Z,4.45
2022-09-07T05:59:02.559Z,4.32
2022-09-07T06:01:29.113Z,4.28
2022-09-07T06:03:55.613Z,4.63
2022-09-07T06:06:22.177Z,4.38
2022-09-07T06:08:50.931Z,4.82
2022-09-07T06:11:19.956Z,4.90
2022-09-07T06:13:46.528Z,4.57
2022-09-07T06:16:14.666Z,4.82
2022-09-07T06:18:44.224Z,4.80
2022-09-07T06:21:13.041Z,4.55
2022-09-07T06:23:41.135Z,4.32
2022-09-07T06:26:09.106Z,4.40
2022-09-07T06:28:37.911Z,4.82
2022-09-07T06:31:07.707Z,4.60
2022-09-07T06:33:35.503Z,4.43
2022-09-07T06:36:05.163Z,4.47
2022-09-07T06:38:33.754Z,4.47
2022-09-07T06:44:06.679Z,4.70
2022-09-07T06:49:20.048Z,5.10
2022-09-07T06:51:46.642Z,4.75
2022-09-07T06:56:59.527Z,4.70
2022-09-07T06:59:26.127Z,5.57
2022-09-07T07:01:52.583Z,4.72
2022-09-07T07:04:19.169Z,5.03
2022-09-07T07:06:46.033Z,4.68
2022-09-07T07:09:13.931Z,5.18
2022-09-07T07:11:40.502Z,5.25
2022-09-07T07:14:07.076Z,5.75
2022-09-07T07:16:33.622Z,4.97
2022-09-07T07:19:00.078Z,5.28
2022-09-07T07:21:28.935Z,5.13
2022-09-07T07:24:03.893Z,5.20
2022-09-07T07:26:32.749Z,5.10
2022-09-07T07:31:33.141Z,5.55
2022-09-07T07:33:59.667Z,5.60
2022-09-07T07:36:26.973Z,4.93
2022-09-07T07:44:17.637Z,5.18
2022-09-07T07:46:47.865Z,5.07
2022-09-07T07:49:14.314Z,4.88
2022-09-07T07:54:27.101Z,5.15
2022-09-07T07:56:53.502Z,5.05
2022-09-07T07:59:20.006Z,4.72
2022-09-07T08:01:46.549Z,5.20
2022-09-07T08:04:13.027Z,5.00
2022-09-07T08:06:42.543Z,5.22
2022-09-07T08:09:09.021Z,5.10
2022-09-07T08:11:35.430Z,5.20
2022-09-07T08:14:05.490Z,5.25
2022-09-07T08:16:32.197Z,5.30
2022-09-07T08:18:58.955Z,5.32
2022-09-07T08:21:25.347Z,5.10
2022-09-07T08:23:51.758Z,5.53
2022-09-07T08:26:18.179Z,4.75
2022-09-07T08:28:45.531Z,5.20
2022-09-07T08:31:14.835Z,5.28
2022-09-07T08:33:41.947Z,5.28
2022-09-07T08:36:17.854Z,5.40
2022-09-07T08:38:44.493Z,5.40
2022-09-07T08:41:26.633Z,4.53
2022-09-07T08:44:02.850Z,5.00
2022-09-07T08:46:42.342Z,5.00
2022-09-07T08:49:19.083Z,4.75
2022-09-07T08:52:10.808Z,4.75
2022-09-07T08:54:39.093Z,4.22
2022-09-07T08:57:21.380Z,4.45
2022-09-07T09:00:14.336Z,4.25
2022-09-07T09:02:44.350Z,4.15
2022-09-07T09:05:28.143Z,4.10
2022-09-07T09:08:10.421Z,4.25
2022-09-07T09:11:01.615Z,4.72
2022-09-07T09:13:55.010Z,4.47
2022-09-07T09:16:45.761Z,4.57
2022-09-07T09:19:39.678Z,5.20
2022-09-07T09:22:28.244Z,5.23
2022-09-07T09:25:15.954Z,5.10
2022-09-07T09:27:42.688Z,5.25
2022-09-07T09:30:14.200Z,5.03
2022-09-07T09:32:43.543Z,4.97
2022-09-07T09:35:32.520Z,5.15
2022-09-07T09:37:59.027Z,5.20
2022-09-07T09:40:30.226Z,4.72
2022-09-07T09:43:05.800Z,5.63
2022-09-07T09:48:35.031Z,5.38
2022-09-07T09:53:58.128Z,5.18
2022-09-07T09:56:45.432Z,4.93
2022-09-07T10:05:39.516Z,5.78
2022-09-07T10:08:38.466Z,5.93
2022-09-07T10:11:07.386Z,5.95
2022-09-07T10:13:37.789Z,5.90
2022-09-07T10:16:07.305Z,6.07
2022-09-07T10:18:40.538Z,6.63
2022-09-07T10:21:20.723Z,6.20
2022-09-07T10:23:47.869Z,6.50
2022-09-07T10:26:35.204Z,6.30
2022-09-07T10:29:29.780Z,5.93
2022-09-07T10:32:07.180Z,6.43
2022-09-07T10:35:01.584Z,5.95
2022-09-07T10:37:43.575Z,6.30
2022-09-07T10:40:34.093Z,6.18
2022-09-07T10:43:22.846Z,5.55
2022-09-07T10:49:24.807Z,6.72
2022-09-07T10:52:12.967Z,5.70
2022-09-07T10:54:57.198Z,6.35
2022-09-07T10:57:49.089Z,6.70
2022-09-07T11:00:18.085Z,6.40
2022-09-07T11:06:02.390Z,6.30
2022-09-07T11:12:03.319Z,6.10
2022-09-07T11:14:37.259Z,5.85
2022-09-07T11:17:12.879Z,6.40
2022-09-07T11:19:46.923Z,5.60
2022-09-07T11:22:18.459Z,6.93
2022-09-07T11:27:50.187Z,6.57
2022-09-07T11:30:26.742Z,6.72
2022-09-07T11:32:59.448Z,6.43
2022-09-07T11:35:35.363Z,6.22
2022-09-07T11:38:12.693Z,6.93
2022-09-07T11:40:55.339Z,6.20
2022-09-07T11:43:27.493Z,7.60
2022-09-07T11:46:04.868Z,6.63
2022-09-07T11:48:39.952Z,6.97
2022-09-07T11:51:16.407Z,6.75
2022-09-07T11:53:51.210Z,7.10
2022-09-07T11:56:25.993Z,6.80
2022-09-07T11:59:20.750Z,6.60
2022-09-07T12:05:10.804Z,6.75
2022-09-07T12:07:43.806Z,7.03
2022-09-07T12:10:47.687Z,7.78
2022-09-07T12:13:33.059Z,7.20
2022-09-07T12:16:12.003Z,7.22
2022-09-07T12:19:15.933Z,7.22
2022-09-07T12:21:47.124Z,7.47
2022-09-07T12:24:32.365Z,7.22
2022-09-07T12:27:03.497Z,6.85
2022-09-07T12:29:31.045Z,7.40
2022-09-07T12:32:52.863Z,8.00
2022-09-07T12:34:52.149Z,7.85
2022-09-07T12:37:51.031Z,7.90
2022-09-07T12:40:33.200Z,7.43
2022-09-07T12:43:14.866Z,7.47
2022-09-07T12:45:42.031Z,8.40
2022-09-07T12:48:17.319Z,8.48
2022-09-07T12:51:00.329Z,8.40
2022-09-07T12:54:05.200Z,8.75
2022-09-07T12:56:38.168Z,8.65
2022-09-07T12:59:20.086Z,9.15
2022-09-07T13:01:57.638Z,8.25
2022-09-07T13:04:49.931Z,8.32
2022-09-07T13:07:39.766Z,8.73
2022-09-07T13:10:26.671Z,8.30
2022-09-07T13:12:59.150Z,8.68
2022-09-07T13:15:42.425Z,8.82
2022-09-07T13:18:34.464Z,9.05
2022-09-07T13:21:06.987Z,8.60
2022-09-07T13:23:38.042Z,8.50
2022-09-07T13:26:08.592Z,9.43
2022-09-07T13:28:57.907Z,9.57
2022-09-07T13:31:42.897Z,9.30
2022-09-07T13:34:34.015Z,9.13
2022-09-07T13:37:06.301Z,8.80
2022-09-07T13:39:41.469Z,8.15
2022-09-07T13:42:15.782Z,8.48
2022-09-07T13:44:42.536Z,9.10
2022-09-07T13:47:19.867Z,9.25
2022-09-07T13:50:11.682Z,9.55
2022-09-07T13:53:14.086Z,9.68
2022-09-07T13:55:52.698Z,9.15
2022-09-07T13:58:40.420Z,9.25
2022-09-07T14:01:13.122Z,9.02
2022-09-07T14:03:59.615Z,9.52
2022-09-07T14:06:34.181Z,8.77
2022-09-07T14:09:06.976Z,8.70
2022-09-07T14:11:45.759Z,9.02
2022-09-07T14:14:15.243Z,9.23
2022-09-07T14:17:04.939Z,8.88
2022-09-07T14:19:48.229Z,9.05
2022-09-07T14:22:17.723Z,9.05
2022-09-07T14:24:58.569Z,9.32
2022-09-07T14:27:46.542Z,8.80
2022-09-07T14:30:19.012Z,8.55
2022-09-07T14:32:47.733Z,8.77
2022-09-07T14:35:17.710Z,8.38
2022-09-07T14:37:46.155Z,9.25
2022-09-07T14:40:21.725Z,8.88
2022-09-07T14:42:51.435Z,8.40
2022-09-07T14:45:22.348Z,9.00
2022-09-07T14:47:52.299Z,8.45
2022-09-07T14:50:33.660Z,9.05
2022-09-07T14:56:01.885Z,9.13
2022-09-07T14:58:32.297Z,8.38
2022-09-07T15:04:02.420Z,8.98
2022-09-07T15:09:38.338Z,8.57
2022-09-07T15:12:30.091Z,9.13
2022-09-07T15:15:26.817Z,9.13
2022-09-07T15:18:03.177Z,8.60
2022-09-07T15:20:41.060Z,8.63
2022-09-07T15:23:13.173Z,8.90
2022-09-07T15:25:44.383Z,8.55
2022-09-07T15:34:10.241Z,8.82
2022-09-07T15:36:40.349Z,8.88
2022-09-07T15:39:07.601Z,8.32
2022-09-07T15:41:34.880Z,8.55
2022-09-07T15:44:01.411Z,8.45
2022-09-07T15:46:27.865Z,7.93
2022-09-07T15:48:55.798Z,8.10
2022-09-07T15:54:14.278Z,9.10
2022-09-07T15:56:42.788Z,12.45
2022-09-07T15:59:11.807Z,10.02
2022-09-07T16:01:55.345Z,9.15
2022-09-07T16:04:24.081Z,9.75
2022-09-07T16:06:50.883Z,9.57
2022-09-07T16:09:17.866Z,9.85
2022-09-07T16:11:50.174Z,9.90
2022-09-07T16:14:17.609Z,9.15
2022-09-07T16:19:34.627Z,9.00
2022-09-07T16:22:01.849Z,9.00
2022-09-07T16:24:28.339Z,8.32
2022-09-07T16:26:55.019Z,8.77
2022-09-07T16:29:21.511Z,8.77
2022-09-07T16:34:34.364Z,8.48
2022-09-07T16:37:00.762Z,8.93
2022-09-07T16:39:29.108Z,8.73
2022-09-07T16:41:55.793Z,8.88
2022-09-07T16:44:22.419Z,8.48
2022-09-07T16:46:48.903Z,7.95
2022-09-07T16:49:16.669Z,8.32
2022-09-07T16:51:43.551Z,8.05
2022-09-07T16:54:12.500Z,8.02
2022-09-07T16:56:39.487Z,8.10
2022-09-07T16:59:09.420Z,8.52
2022-09-07T17:01:40.390Z,7.75
2022-09-07T17:04:10.627Z,7.57
2022-09-07T17:06:38.220Z,8.10
2022-09-07T17:09:05.033Z,7.90
2022-09-07T17:11:34.250Z,7.93
2022-09-07T17:14:01.388Z,8.23
2022-09-07T17:16:30.714Z,7.68
2022-09-07T17:21:46.508Z,7.85
2022-09-07T17:24:13.079Z,7.88
2022-09-07T17:26:42.111Z,7.50
2022-09-07T17:29:09.552Z,8.30
2022-09-07T17:34:23.551Z,7.47
2022-09-07T17:36:50.275Z,7.60
2022-09-07T17:39:18.755Z,7.05
2022-09-07T17:41:52.587Z,7.35
2022-09-07T17:44:19.407Z,7.80
2022-09-07T17:46:45.968Z,7.93
2022-09-07T17:49:14.300Z,7.75
2022-09-07T17:51:40.743Z,7.30
2022-09-07T17:54:11.743Z,7.65
2022-09-07T17:56:40.041Z,7.60
2022-09-07T18:01:56.199Z,7.20
2022-09-07T18:04:22.799Z,7.70
2022-09-07T18:06:50.186Z,7.28
2022-09-07T18:09:19.571Z,7.57
2022-09-07T18:11:47.631Z,6.88
2022-09-07T18:14:15.354Z,8.23
2022-09-07T18:16:43.843Z,6.63
2022-09-07T18:19:11.618Z,6.93
2022-09-07T18:21:40.992Z,7.38
2022-09-07T18:24:13.525Z,7.57
2022-09-07T18:26:40.587Z,6.97
2022-09-07T18:29:18.793Z,6.63
2022-09-07T18:31:53.668Z,6.93
2022-09-07T18:34:21.834Z,7.30
2022-09-07T18:36:48.291Z,7.28
2022-09-07T18:39:15.054Z,7.40
2022-09-07T18:41:42.070Z,7.10
2022-09-07T18:45:27.351Z,7.55
2022-09-07T18:46:55.340Z,7.68
2022-09-07T18:49:21.733Z,6.40
2022-09-07T18:54:34.656Z,7.45
2022-09-07T18:57:01.074Z,7.60
2022-09-07T18:59:28.073Z,7.50
2022-09-07T19:02:01.341Z,7.47
2022-09-07T19:05:49.656Z,7.35
2022-09-07T19:07:16.949Z,8.05
2022-09-07T19:09:43.434Z,7.10
2022-09-07T19:12:10.057Z,6.50
2022-09-07T19:14:36.568Z,7.07
2022-09-07T19:17:03.084Z,7.57
2022-09-07T19:19:29.533Z,7.60
2022-09-07T19:21:57.737Z,7.38
2022-09-07T19:24:25.627Z,7.45
2022-09-07T19:26:54.755Z,7.60
2022-09-07T19:29:25.133Z,8.38
2022-09-07T19:32:05.498Z,7.70
2022-09-07T19:34:38.723Z,8.18
2022-09-07T19:37:07.058Z,7.83
2022-09-07T19:39:33.599Z,7.90
2022-09-07T19:42:00.641Z,7.45
2022-09-07T19:44:27.850Z,7.75
2022-09-07T19:46:54.319Z,7.95
2022-09-07T19:49:20.756Z,8.18
2022-09-07T19:51:50.127Z,8.00
2022-09-07T19:54:16.525Z,7.70
2022-09-07T19:56:43.235Z,7.88
2022-09-07T19:59:09.858Z,8.05
2022-09-07T20:01:37.719Z,7.88
2022-09-07T20:04:06.922Z,8.18
2022-09-07T20:06:34.634Z,8.05
2022-09-07T20:09:04.580Z,8.15
2022-09-07T20:11:31.981Z,7.55
2022-09-07T20:13:58.605Z,7.90
2022-09-07T20:16:25.625Z,7.80
2022-09-07T20:18:52.163Z,7.63
2022-09-07T20:21:21.433Z,8.02
2022-09-07T20:23:48.463Z,7.40
2022-09-07T20:26:17.117Z,7.57
2022-09-07T20:28:44.224Z,7.25
2022-09-07T20:31:15.449Z,7.45
2022-09-07T20:33:46.182Z,7.80
2022-09-07T20:36:15.294Z,7.75
2022-09-07T20:38:43.954Z,7.55
2022-09-07T20:41:15.830Z,7.20
2022-09-07T20:43:42.258Z,7.80
2022-09-07T20:46:11.704Z,7.82
2022-09-07T20:48:39.150Z,7.68
2022-09-07T20:51:09.437Z,7.72
2022-09-07T20:53:37.263Z,7.53
2022-09-07T20:56:06.887Z,7.85
2022-09-07T20:58:35.284Z,7.50
2022-09-07T21:01:02.628Z,8.15
2022-09-07T21:03:29.446Z,7.03
2022-09-07T21:05:55.935Z,8.00
2022-09-07T21:08:22.385Z,7.40
2022-09-07T21:10:48.814Z,7.70
2022-09-07T21:13:15.303Z,7.28
2022-09-07T21:15:43.600Z,7.50
2022-09-07T21:18:17.275Z,8.30
2022-09-07T21:20:53.291Z,8.18
2022-09-07T21:23:33.053Z,7.63
2022-09-07T21:25:59.875Z,8.55
2022-09-07T21:28:27.076Z,8.30
2022-09-07T21:30:57.645Z,7.85
2022-09-07T21:33:25.243Z,7.97
2022-09-07T21:35:52.005Z,8.07
2022-09-07T21:38:18.633Z,9.73
2022-09-07T21:40:45.057Z,8.98
2022-09-07T21:43:11.504Z,9.50
2022-09-07T21:45:37.888Z,8.13
2022-09-07T21:48:04.382Z,8.88
2022-09-07T21:50:30.809Z,8.63
2022-09-07T21:52:57.203Z,8.30
2022-09-07T21:55:23.652Z,8.25
2022-09-07T21:57:50.042Z,8.73
2022-09-07T22:00:16.435Z,8.55
2022-09-07T22:02:42.881Z,8.77
2022-09-07T22:05:09.873Z,9.48
2022-09-07T22:07:36.311Z,8.90
2022-09-07T22:10:02.973Z,8.50
2022-09-07T22:12:29.547Z,8.30
2022-09-07T22:14:56.102Z,8.93
2022-09-07T22:17:22.564Z,8.45
2022-09-07T22:19:48.992Z,8.35
2022-09-07T22:22:15.467Z,8.93
2022-09-07T22:24:41.857Z,9.02
2022-09-07T22:27:08.301Z,9.13
2022-09-07T22:29:37.595Z,8.63
2022-09-07T22:32:11.548Z,8.95
2022-09-07T22:34:38.015Z,9.98
2022-09-07T22:37:04.700Z,9.27
2022-09-07T22:39:31.144Z,8.65
2022-09-07T22:41:58.074Z,8.32
2022-09-07T22:44:26.720Z,9.32
2022-09-07T22:46:53.177Z,9.27
2022-09-07T22:49:19.626Z,8.77
2022-09-07T22:51:47.155Z,8.55
2022-09-07T22:54:14.036Z,8.55
2022-09-07T22:56:40.774Z,8.63
2022-09-07T22:59:08.975Z,8.30
2022-09-07T23:01:36.576Z,9.25
2022-09-07T23:04:03.683Z,8.77
2022-09-07T23:06:38.638Z,8.45
2022-09-07T23:09:10.848Z,8.48
2022-09-07T23:11:37.861Z,9.27
2022-09-07T23:14:07.079Z,8.80
2022-09-07T23:16:33.544Z,9.65
2022-09-07T23:19:00.684Z,9.57
2022-09-07T23:21:28.036Z,8.55
2022-09-07T23:23:56.841Z,8.75
2022-09-07T23:26:24.782Z,9.25
2022-09-07T23:28:56.642Z,9.70
2022-09-07T23:31:24.256Z,9.75
2022-09-07T23:33:51.218Z,9.63
2022-09-07T23:36:18.802Z,9.65
2022-09-07T23:38:46.312Z,8.93
2022-09-07T23:41:17.724Z,9.38
2022-09-07T23:43:44.160Z,9.23
2022-09-07T23:46:12.277Z,9.27
2022-09-07T23:48:39.111Z,8.98
2022-09-07T23:51:05.886Z,9.43
2022-09-07T23:53:32.626Z,9.27
2022-09-07T23:55:59.170Z,9.15
2022-09-07T23:58:25.611Z,10.38
